sensor_id;sensor_type;location;lat;lon;timestamp;P1;durP1;ratioP1;P2;durP2;ratioP2
13807;SDS011;40769;51.512;5.494;2022-11-15T00:00:06;8.10;;;7.30;;
13807;SDS011;40769;51.512;5.494;2022-11-15T00:02:34;6.28;;;5.68;;
13807;SDS011;40769;51.512;5.494;2022-11-15T00:05:00;7.05;;;6.38;;
13807;SDS011;40769;51.512;5.494;2022-11-15T00:07:26;6.28;;;5.68;;
13807;SDS011;40769;51.512;5.494;2022-11-15T00:09:51;7.72;;;6.97;;
13807;SDS011;40769;51.512;5.494;2022-11-15T00:12:17;7.57;;;6.50;;
13807;SDS011;40769;51.512;5.494;2022-11-15T00:14:42;7.00;;;6.30;;
13807;SDS011;40769;51.512;5.494;2022-11-15T00:17:08;6.93;;;6.22;;
13807;SDS011;40769;51.512;5.494;2022-11-15T00:19:34;8.00;;;7.20;;
13807;SDS011;40769;51.512;5.494;2022-11-15T00:21:59;7.15;;;6.53;;
13807;SDS011;40769;51.512;5.494;2022-11-15T00:24:25;6.10;;;5.50;;
13807;SDS011;40769;51.512;5.494;2022-11-15T00:26:51;6.35;;;5.72;;
13807;SDS011;40769;51.512;5.494;2022-11-15T00:29:16;6.60;;;5.90;;
13807;SDS011;40769;51.512;5.494;2022-11-15T00:31:42;6.43;;;5.88;;
13807;SDS011;40769;51.512;5.494;2022-11-15T00:34:08;8.98;;;8.13;;
13807;SDS011;40769;51.512;5.494;2022-11-15T00:36:35;7.07;;;6.47;;
13807;SDS011;40769;51.512;5.494;2022-11-15T00:39:02;8.05;;;7.25;;
13807;SDS011;40769;51.512;5.494;2022-11-15T00:41:29;7.80;;;7.10;;
13807;SDS011;40769;51.512;5.494;2022-11-15T00:43:55;7.38;;;6.70;;
13807;SDS011;40769;51.512;5.494;2022-11-15T00:46:20;7.35;;;6.65;;
13807;SDS011;40769;51.512;5.494;2022-11-15T00:48:46;7.45;;;6.85;;
13807;SDS011;40769;51.512;5.494;2022-11-15T00:51:11;7.25;;;6.60;;
13807;SDS011;40769;51.512;5.494;2022-11-15T00:53:37;6.25;;;5.70;;
13807;SDS011;40769;51.512;5.494;2022-11-15T00:56:03;6.40;;;5.88;;
13807;SDS011;40769;51.512;5.494;2022-11-15T00:58:29;8.68;;;7.88;;
13807;SDS011;40769;51.512;5.494;2022-11-15T01:00:54;7.47;;;6.78;;
13807;SDS011;40769;51.512;5.494;2022-11-15T01:03:20;7.60;;;6.90;;
13807;SDS011;40769;51.512;5.494;2022-11-15T01:05:45;6.20;;;5.60;;
13807;SDS011;40769;51.512;5.494;2022-11-15T01:08:12;7.45;;;6.75;;
13807;SDS011;40769;51.512;5.494;2022-11-15T01:10:38;6.43;;;5.93;;
13807;SDS011;40769;51.512;5.494;2022-11-15T01:13:04;7.22;;;6.53;;
13807;SDS011;40769;51.512;5.494;2022-11-15T01:15:30;6.38;;;5.80;;
13807;SDS011;40769;51.512;5.494;2022-11-15T01:17:56;8.10;;;7.40;;
13807;SDS011;40769;51.512;5.494;2022-11-15T01:20:21;8.18;;;7.38;;
13807;SDS011;40769;51.512;5.494;2022-11-15T01:22:47;6.80;;;6.20;;
13807;SDS011;40769;51.512;5.494;2022-11-15T01:25:12;7.55;;;6.82;;
13807;SDS011;40769;51.512;5.494;2022-11-15T01:27:38;6.65;;;5.95;;
13807;SDS011;40769;51.512;5.494;2022-11-15T01:30:04;5.72;;;5.22;;
13807;SDS011;40769;51.512;5.494;2022-11-15T01:32:30;5.85;;;5.35;;
13807;SDS011;40769;51.512;5.494;2022-11-15T01:34:56;5.60;;;5.10;;
13807;SDS011;40769;51.512;5.494;2022-11-15T01:37:22;5.90;;;5.40;;
13807;SDS011;40769;51.512;5.494;2022-11-15T01:39:47;7.20;;;6.60;;
13807;SDS011;40769;51.512;5.494;2022-11-15T01:42:13;7.07;;;6.38;;
13807;SDS011;40769;51.512;5.494;2022-11-15T01:44:49;6.63;;;6.03;;
13807;SDS011;40769;51.512;5.494;2022-11-15T01:47:22;5.90;;;5.40;;
13807;SDS011;40769;51.512;5.494;2022-11-15T01:50:04;6.00;;;5.40;;
13807;SDS011;40769;51.512;5.494;2022-11-15T01:52:32;6.80;;;6.25;;
13807;SDS011;40769;51.512;5.494;2022-11-15T01:55:07;5.60;;;5.15;;
13807;SDS011;40769;51.512;5.494;2022-11-15T01:57:36;8.30;;;7.50;;
13807;SDS011;40769;51.512;5.494;2022-11-15T02:00:04;6.43;;;5.82;;
13807;SDS011;40769;51.512;5.494;2022-11-15T02:02:32;6.05;;;5.50;;
13807;SDS011;40769;51.512;5.494;2022-11-15T02:04:58;5.70;;;5.20;;
13807;SDS011;40769;51.512;5.494;2022-11-15T02:07:24;6.75;;;6.15;;
13807;SDS011;40769;51.512;5.494;2022-11-15T02:09:51;6.20;;;5.70;;
13807;SDS011;40769;51.512;5.494;2022-11-15T02:12:18;6.13;;;5.63;;
13807;SDS011;40769;51.512;5.494;2022-11-15T02:14:47;6.72;;;6.13;;
13807;SDS011;40769;51.512;5.494;2022-11-15T02:17:21;5.88;;;5.38;;
13807;SDS011;40769;51.512;5.494;2022-11-15T02:28:41;6.47;;;5.90;;
13807;SDS011;40769;51.512;5.494;2022-11-15T02:42:33;6.75;;;6.13;;
13807;SDS011;40769;51.512;5.494;2022-11-15T02:45:22;6.40;;;5.80;;
13807;SDS011;40769;51.512;5.494;2022-11-15T02:47:52;6.13;;;5.60;;
13807;SDS011;40769;51.512;5.494;2022-11-15T02:50:23;6.03;;;5.53;;
13807;SDS011;40769;51.512;5.494;2022-11-15T02:52:52;7.00;;;6.38;;
13807;SDS011;40769;51.512;5.494;2022-11-15T03:00:43;7.65;;;6.95;;
13807;SDS011;40769;51.512;5.494;2022-11-15T03:06:08;6.97;;;6.25;;
13807;SDS011;40769;51.512;5.494;2022-11-15T03:08:49;6.90;;;6.30;;
13807;SDS011;40769;51.512;5.494;2022-11-15T03:11:29;7.38;;;6.35;;
13807;SDS011;40769;51.512;5.494;2022-11-15T03:14:02;6.88;;;6.28;;
13807;SDS011;40769;51.512;5.494;2022-11-15T03:19:47;7.38;;;6.78;;
13807;SDS011;40769;51.512;5.494;2022-11-15T03:22:17;5.88;;;5.38;;
13807;SDS011;40769;51.512;5.494;2022-11-15T03:24:45;6.65;;;6.05;;
13807;SDS011;40769;51.512;5.494;2022-11-15T03:27:15;6.53;;;5.93;;
13807;SDS011;40769;51.512;5.494;2022-11-15T03:29:50;6.10;;;5.60;;
13807;SDS011;40769;51.512;5.494;2022-11-15T03:32:22;5.40;;;5.00;;
13807;SDS011;40769;51.512;5.494;2022-11-15T03:35:09;5.70;;;5.20;;
13807;SDS011;40769;51.512;5.494;2022-11-15T03:37:49;8.32;;;7.53;;
13807;SDS011;40769;51.512;5.494;2022-11-15T03:40:29;8.60;;;7.78;;
13807;SDS011;40769;51.512;5.494;2022-11-15T03:43:09;6.60;;;6.00;;
13807;SDS011;40769;51.512;5.494;2022-11-15T03:45:41;6.28;;;5.78;;
13807;SDS011;40769;51.512;5.494;2022-11-15T03:48:16;7.32;;;6.70;;
13807;SDS011;40769;51.512;5.494;2022-11-15T03:50:47;6.38;;;5.78;;
13807;SDS011;40769;51.512;5.494;2022-11-15T03:53:14;6.53;;;5.93;;
13807;SDS011;40769;51.512;5.494;2022-11-15T03:55:39;7.78;;;7.07;;
13807;SDS011;40769;51.512;5.494;2022-11-15T03:58:05;7.93;;;7.13;;
13807;SDS011;40769;51.512;5.494;2022-11-15T04:00:31;9.63;;;8.82;;
13807;SDS011;40769;51.512;5.494;2022-11-15T04:02:57;9.90;;;8.93;;
13807;SDS011;40769;51.512;5.494;2022-11-15T04:05:23;7.47;;;6.78;;
13807;SDS011;40769;51.512;5.494;2022-11-15T04:07:49;6.85;;;6.13;;
13807;SDS011;40769;51.512;5.494;2022-11-15T04:10:14;6.22;;;5.63;;
13807;SDS011;40769;51.512;5.494;2022-11-15T04:12:41;8.60;;;7.80;;
13807;SDS011;40769;51.512;5.494;2022-11-15T04:15:09;8.85;;;8.05;;
13807;SDS011;40769;51.512;5.494;2022-11-15T04:17:49;6.78;;;6.18;;
13807;SDS011;40769;51.512;5.494;2022-11-15T04:20:19;7.53;;;6.72;;
13807;SDS011;40769;51.512;5.494;2022-11-15T04:23:10;6.03;;;5.47;;
13807;SDS011;40769;51.512;5.494;2022-11-15T04:25:58;7.78;;;7.07;;
13807;SDS011;40769;51.512;5.494;2022-11-15T04:28:25;8.43;;;7.38;;
13807;SDS011;40769;51.512;5.494;2022-11-15T04:30:51;7.70;;;7.00;;
13807;SDS011;40769;51.512;5.494;2022-11-15T04:33:17;6.50;;;6.00;;
13807;SDS011;40769;51.512;5.494;2022-11-15T04:35:43;6.88;;;5.60;;
13807;SDS011;40769;51.512;5.494;2022-11-15T04:38:28;6.25;;;5.60;;
13807;SDS011;40769;51.512;5.494;2022-11-15T04:40:54;5.88;;;5.28;;
13807;SDS011;40769;51.512;5.494;2022-11-15T04:43:20;5.57;;;5.03;;
13807;SDS011;40769;51.512;5.494;2022-11-15T04:45:45;5.97;;;5.43;;
13807;SDS011;40769;51.512;5.494;2022-11-15T04:48:11;6.25;;;5.35;;
13807;SDS011;40769;51.512;5.494;2022-11-15T04:50:36;5.55;;;5.05;;
13807;SDS011;40769;51.512;5.494;2022-11-15T04:53:02;6.72;;;6.03;;
13807;SDS011;40769;51.512;5.494;2022-11-15T04:55:27;7.85;;;7.15;;
13807;SDS011;40769;51.512;5.494;2022-11-15T04:57:57;8.45;;;7.70;;
13807;SDS011;40769;51.512;5.494;2022-11-15T05:00:28;9.60;;;7.57;;
13807;SDS011;40769;51.512;5.494;2022-11-15T05:02:55;6.57;;;5.97;;
13807;SDS011;40769;51.512;5.494;2022-11-15T05:05:39;5.97;;;5.47;;
13807;SDS011;40769;51.512;5.494;2022-11-15T05:08:05;5.80;;;5.30;;
13807;SDS011;40769;51.512;5.494;2022-11-15T05:10:31;5.47;;;4.97;;
13807;SDS011;40769;51.512;5.494;2022-11-15T05:12:56;5.93;;;5.32;;
13807;SDS011;40769;51.512;5.494;2022-11-15T05:15:22;6.22;;;5.45;;
13807;SDS011;40769;51.512;5.494;2022-11-15T05:17:48;5.60;;;5.07;;
13807;SDS011;40769;51.512;5.494;2022-11-15T05:20:13;5.57;;;5.07;;
13807;SDS011;40769;51.512;5.494;2022-11-15T05:22:39;5.30;;;4.88;;
13807;SDS011;40769;51.512;5.494;2022-11-15T05:25:05;7.13;;;6.43;;
13807;SDS011;40769;51.512;5.494;2022-11-15T05:27:31;8.50;;;7.65;;
13807;SDS011;40769;51.512;5.494;2022-11-15T05:29:58;7.57;;;6.88;;
13807;SDS011;40769;51.512;5.494;2022-11-15T05:32:23;7.10;;;6.40;;
13807;SDS011;40769;51.512;5.494;2022-11-15T05:34:50;8.27;;;7.47;;
13807;SDS011;40769;51.512;5.494;2022-11-15T05:37:16;7.22;;;6.63;;
13807;SDS011;40769;51.512;5.494;2022-11-15T05:39:42;6.68;;;6.13;;
13807;SDS011;40769;51.512;5.494;2022-11-15T05:42:12;6.93;;;6.35;;
13807;SDS011;40769;51.512;5.494;2022-11-15T05:44:39;5.50;;;5.03;;
13807;SDS011;40769;51.512;5.494;2022-11-15T05:47:10;4.78;;;4.38;;
13807;SDS011;40769;51.512;5.494;2022-11-15T05:49:38;5.53;;;5.03;;
13807;SDS011;40769;51.512;5.494;2022-11-15T05:52:06;5.70;;;5.20;;
13807;SDS011;40769;51.512;5.494;2022-11-15T05:54:36;7.38;;;6.68;;
13807;SDS011;40769;51.512;5.494;2022-11-15T05:57:03;7.78;;;6.97;;
13807;SDS011;40769;51.512;5.494;2022-11-15T05:59:29;8.10;;;7.30;;
13807;SDS011;40769;51.512;5.494;2022-11-15T06:01:56;6.40;;;5.85;;
13807;SDS011;40769;51.512;5.494;2022-11-15T06:04:22;5.60;;;5.20;;
13807;SDS011;40769;51.512;5.494;2022-11-15T06:06:47;5.88;;;5.38;;
13807;SDS011;40769;51.512;5.494;2022-11-15T06:09:13;8.32;;;6.28;;
13807;SDS011;40769;51.512;5.494;2022-11-15T06:11:39;6.00;;;5.07;;
13807;SDS011;40769;51.512;5.494;2022-11-15T06:14:04;6.93;;;6.22;;
13807;SDS011;40769;51.512;5.494;2022-11-15T06:16:30;6.03;;;5.25;;
13807;SDS011;40769;51.512;5.494;2022-11-15T06:18:56;7.72;;;6.97;;
13807;SDS011;40769;51.512;5.494;2022-11-15T06:21:22;6.00;;;5.50;;
13807;SDS011;40769;51.512;5.494;2022-11-15T06:23:47;8.57;;;7.88;;
13807;SDS011;40769;51.512;5.494;2022-11-15T06:26:13;7.72;;;6.97;;
13807;SDS011;40769;51.512;5.494;2022-11-15T06:28:41;7.07;;;6.40;;
13807;SDS011;40769;51.512;5.494;2022-11-15T06:31:10;9.77;;;8.88;;
13807;SDS011;40769;51.512;5.494;2022-11-15T06:33:37;6.85;;;6.25;;
13807;SDS011;40769;51.512;5.494;2022-11-15T06:36:04;8.73;;;7.93;;
13807;SDS011;40769;51.512;5.494;2022-11-15T06:38:34;8.98;;;8.25;;
13807;SDS011;40769;51.512;5.494;2022-11-15T06:41:05;8.45;;;7.75;;
13807;SDS011;40769;51.512;5.494;2022-11-15T06:43:32;8.85;;;7.90;;
13807;SDS011;40769;51.512;5.494;2022-11-15T06:45:58;6.78;;;6.18;;
13807;SDS011;40769;51.512;5.494;2022-11-15T06:48:25;6.60;;;6.00;;
13807;SDS011;40769;51.512;5.494;2022-11-15T06:50:51;6.38;;;5.82;;
13807;SDS011;40769;51.512;5.494;2022-11-15T06:53:21;5.80;;;5.30;;
13807;SDS011;40769;51.512;5.494;2022-11-15T06:55:46;7.70;;;7.00;;
13807;SDS011;40769;51.512;5.494;2022-11-15T06:58:12;7.68;;;6.95;;
13807;SDS011;40769;51.512;5.494;2022-11-15T07:00:38;8.20;;;7.40;;
13807;SDS011;40769;51.512;5.494;2022-11-15T07:03:04;6.20;;;5.70;;
13807;SDS011;40769;51.512;5.494;2022-11-15T07:05:32;6.20;;;5.60;;
13807;SDS011;40769;51.512;5.494;2022-11-15T07:07:58;8.10;;;7.38;;
13807;SDS011;40769;51.512;5.494;2022-11-15T07:10:24;8.10;;;5.47;;
13807;SDS011;40769;51.512;5.494;2022-11-15T07:12:51;5.95;;;5.45;;
13807;SDS011;40769;51.512;5.494;2022-11-15T07:15:17;7.22;;;6.63;;
13807;SDS011;40769;51.512;5.494;2022-11-15T07:17:44;6.07;;;5.47;;
13807;SDS011;40769;51.512;5.494;2022-11-15T07:20:10;5.60;;;5.00;;
13807;SDS011;40769;51.512;5.494;2022-11-15T07:22:38;4.85;;;4.47;;
13807;SDS011;40769;51.512;5.494;2022-11-15T07:25:04;5.70;;;5.20;;
13807;SDS011;40769;51.512;5.494;2022-11-15T07:27:30;6.55;;;5.65;;
13807;SDS011;40769;51.512;5.494;2022-11-15T07:29:55;6.43;;;5.88;;
13807;SDS011;40769;51.512;5.494;2022-11-15T07:32:21;5.38;;;4.53;;
13807;SDS011;40769;51.512;5.494;2022-11-15T07:34:47;5.78;;;5.28;;
13807;SDS011;40769;51.512;5.494;2022-11-15T07:37:12;5.35;;;4.75;;
13807;SDS011;40769;51.512;5.494;2022-11-15T07:39:38;7.63;;;6.93;;
13807;SDS011;40769;51.512;5.494;2022-11-15T07:42:03;6.72;;;6.10;;
13807;SDS011;40769;51.512;5.494;2022-11-15T07:44:48;7.25;;;6.65;;
13807;SDS011;40769;51.512;5.494;2022-11-15T07:47:13;6.03;;;5.53;;
13807;SDS011;40769;51.512;5.494;2022-11-15T07:49:39;6.43;;;5.90;;
13807;SDS011;40769;51.512;5.494;2022-11-15T07:52:05;6.10;;;5.60;;
13807;SDS011;40769;51.512;5.494;2022-11-15T07:54:30;6.30;;;5.30;;
13807;SDS011;40769;51.512;5.494;2022-11-15T07:56:56;5.35;;;4.53;;
13807;SDS011;40769;51.512;5.494;2022-11-15T07:59:21;6.88;;;6.07;;
13807;SDS011;40769;51.512;5.494;2022-11-15T08:01:47;5.85;;;5.28;;
13807;SDS011;40769;51.512;5.494;2022-11-15T08:04:13;5.38;;;4.88;;
13807;SDS011;40769;51.512;5.494;2022-11-15T08:06:38;5.35;;;4.85;;
13807;SDS011;40769;51.512;5.494;2022-11-15T08:09:04;6.25;;;5.65;;
13807;SDS011;40769;51.512;5.494;2022-11-15T08:11:32;6.10;;;5.50;;
13807;SDS011;40769;51.512;5.494;2022-11-15T08:13:58;4.88;;;4.35;;
13807;SDS011;40769;51.512;5.494;2022-11-15T08:16:24;4.88;;;4.00;;
13807;SDS011;40769;51.512;5.494;2022-11-15T08:18:49;5.45;;;4.80;;
13807;SDS011;40769;51.512;5.494;2022-11-15T08:21:17;5.03;;;4.63;;
13807;SDS011;40769;51.512;5.494;2022-11-15T08:23:44;4.72;;;4.30;;
13807;SDS011;40769;51.512;5.494;2022-11-15T08:26:09;5.43;;;4.90;;
13807;SDS011;40769;51.512;5.494;2022-11-15T08:28:35;4.60;;;4.28;;
13807;SDS011;40769;51.512;5.494;2022-11-15T08:31:01;5.05;;;4.65;;
13807;SDS011;40769;51.512;5.494;2022-11-15T08:33:28;3.97;;;3.58;;
13807;SDS011;40769;51.512;5.494;2022-11-15T08:35:57;3.45;;;3.15;;
13807;SDS011;40769;51.512;5.494;2022-11-15T08:38:23;3.80;;;3.50;;
13807;SDS011;40769;51.512;5.494;2022-11-15T08:40:49;3.58;;;3.28;;
13807;SDS011;40769;51.512;5.494;2022-11-15T08:43:16;4.35;;;3.97;;
13807;SDS011;40769;51.512;5.494;2022-11-15T08:45:42;4.05;;;3.75;;
13807;SDS011;40769;51.512;5.494;2022-11-15T08:48:07;4.25;;;3.85;;
13807;SDS011;40769;51.512;5.494;2022-11-15T08:50:33;3.90;;;3.47;;
13807;SDS011;40769;51.512;5.494;2022-11-15T08:53:06;4.10;;;3.70;;
13807;SDS011;40769;51.512;5.494;2022-11-15T08:55:35;3.83;;;3.53;;
13807;SDS011;40769;51.512;5.494;2022-11-15T08:58:01;4.13;;;3.72;;
13807;SDS011;40769;51.512;5.494;2022-11-15T09:00:27;3.97;;;3.00;;
13807;SDS011;40769;51.512;5.494;2022-11-15T09:02:53;3.22;;;2.95;;
13807;SDS011;40769;51.512;5.494;2022-11-15T09:05:18;3.33;;;3.03;;
13807;SDS011;40769;51.512;5.494;2022-11-15T09:07:44;2.80;;;2.60;;
13807;SDS011;40769;51.512;5.494;2022-11-15T09:10:09;2.70;;;2.50;;
13807;SDS011;40769;51.512;5.494;2022-11-15T09:12:35;2.88;;;2.63;;
13807;SDS011;40769;51.512;5.494;2022-11-15T09:15:01;2.90;;;2.53;;
13807;SDS011;40769;51.512;5.494;2022-11-15T09:17:27;2.40;;;2.20;;
13807;SDS011;40769;51.512;5.494;2022-11-15T09:19:52;2.95;;;2.63;;
13807;SDS011;40769;51.512;5.494;2022-11-15T09:22:18;2.40;;;2.20;;
13807;SDS011;40769;51.512;5.494;2022-11-15T09:24:44;2.95;;;2.75;;
13807;SDS011;40769;51.512;5.494;2022-11-15T09:27:09;3.88;;;3.17;;
13807;SDS011;40769;51.512;5.494;2022-11-15T09:29:35;2.70;;;2.50;;
13807;SDS011;40769;51.512;5.494;2022-11-15T09:32:01;1.67;;;1.58;;
13807;SDS011;40769;51.512;5.494;2022-11-15T09:34:26;3.33;;;2.53;;
13807;SDS011;40769;51.512;5.494;2022-11-15T09:36:52;3.08;;;2.70;;
13807;SDS011;40769;51.512;5.494;2022-11-15T09:39:18;3.30;;;3.00;;
13807;SDS011;40769;51.512;5.494;2022-11-15T09:50:12;2.80;;;2.05;;
13807;SDS011;40769;51.512;5.494;2022-11-15T09:52:43;1.92;;;1.80;;
13807;SDS011;40769;51.512;5.494;2022-11-15T09:55:10;2.30;;;1.65;;
13807;SDS011;40769;51.512;5.494;2022-11-15T09:57:57;1.90;;;1.52;;
13807;SDS011;40769;51.512;5.494;2022-11-15T10:00:40;1.88;;;1.13;;
13807;SDS011;40769;51.512;5.494;2022-11-15T10:03:14;1.40;;;1.13;;
13807;SDS011;40769;51.512;5.494;2022-11-15T10:05:48;1.65;;;1.17;;
13807;SDS011;40769;51.512;5.494;2022-11-15T10:11:17;2.65;;;1.00;;
13807;SDS011;40769;51.512;5.494;2022-11-15T10:13:46;1.13;;;1.00;;
13807;SDS011;40769;51.512;5.494;2022-11-15T10:16:24;1.25;;;0.88;;
13807;SDS011;40769;51.512;5.494;2022-11-15T10:24:49;1.25;;;0.80;;
13807;SDS011;40769;51.512;5.494;2022-11-15T10:27:17;1.58;;;0.93;;
13807;SDS011;40769;51.512;5.494;2022-11-15T10:29:45;1.30;;;0.77;;
13807;SDS011;40769;51.512;5.494;2022-11-15T10:32:19;1.13;;;0.80;;
13807;SDS011;40769;51.512;5.494;2022-11-15T10:34:46;1.25;;;0.80;;
13807;SDS011;40769;51.512;5.494;2022-11-15T10:37:13;2.15;;;0.90;;
13807;SDS011;40769;51.512;5.494;2022-11-15T10:39:38;2.42;;;0.93;;
13807;SDS011;40769;51.512;5.494;2022-11-15T10:42:18;1.48;;;1.05;;
13807;SDS011;40769;51.512;5.494;2022-11-15T10:44:52;3.05;;;1.00;;
13807;SDS011;40769;51.512;5.494;2022-11-15T10:47:22;1.77;;;0.77;;
13807;SDS011;40769;51.512;5.494;2022-11-15T10:50:06;2.45;;;0.90;;
13807;SDS011;40769;51.512;5.494;2022-11-15T10:52:50;1.02;;;0.90;;
13807;SDS011;40769;51.512;5.494;2022-11-15T10:57:47;1.85;;;0.80;;
13807;SDS011;40769;51.512;5.494;2022-11-15T11:00:35;1.65;;;0.90;;
13807;SDS011;40769;51.512;5.494;2022-11-15T11:03:05;1.52;;;0.98;;
13807;SDS011;40769;51.512;5.494;2022-11-15T11:05:45;3.35;;;0.80;;
13807;SDS011;40769;51.512;5.494;2022-11-15T11:10:36;1.50;;;0.60;;
13807;SDS011;40769;51.512;5.494;2022-11-15T11:13:19;1.08;;;0.90;;
13807;SDS011;40769;51.512;5.494;2022-11-15T11:15:46;2.00;;;0.88;;
13807;SDS011;40769;51.512;5.494;2022-11-15T11:21:14;0.98;;;0.70;;
13807;SDS011;40769;51.512;5.494;2022-11-15T11:34:34;1.80;;;0.95;;
13807;SDS011;40769;51.512;5.494;2022-11-15T11:40:16;1.13;;;0.70;;
13807;SDS011;40769;51.512;5.494;2022-11-15T11:42:53;0.93;;;0.65;;
13807;SDS011;40769;51.512;5.494;2022-11-15T11:48:13;1.50;;;1.00;;
13807;SDS011;40769;51.512;5.494;2022-11-15T11:51:16;1.33;;;0.63;;
13807;SDS011;40769;51.512;5.494;2022-11-15T11:56:22;1.23;;;0.73;;
13807;SDS011;40769;51.512;5.494;2022-11-15T11:59:05;1.30;;;0.60;;
13807;SDS011;40769;51.512;5.494;2022-11-15T12:01:44;2.05;;;0.85;;
13807;SDS011;40769;51.512;5.494;2022-11-15T12:04:21;1.65;;;0.50;;
13807;SDS011;40769;51.512;5.494;2022-11-15T12:09:46;0.63;;;0.60;;
13807;SDS011;40769;51.512;5.494;2022-11-15T12:15:25;1.42;;;0.80;;
13807;SDS011;40769;51.512;5.494;2022-11-15T12:17:57;1.08;;;0.70;;
13807;SDS011;40769;51.512;5.494;2022-11-15T12:20:30;1.00;;;0.75;;
13807;SDS011;40769;51.512;5.494;2022-11-15T12:23:13;0.88;;;0.80;;
13807;SDS011;40769;51.512;5.494;2022-11-15T12:25:55;2.92;;;1.00;;
13807;SDS011;40769;51.512;5.494;2022-11-15T12:31:05;2.53;;;1.00;;
13807;SDS011;40769;51.512;5.494;2022-11-15T12:33:42;1.90;;;0.90;;
13807;SDS011;40769;51.512;5.494;2022-11-15T12:36:11;1.45;;;0.90;;
13807;SDS011;40769;51.512;5.494;2022-11-15T12:39:02;2.00;;;1.05;;
13807;SDS011;40769;51.512;5.494;2022-11-15T12:41:29;1.73;;;1.00;;
13807;SDS011;40769;51.512;5.494;2022-11-15T12:43:57;1.05;;;0.80;;
13807;SDS011;40769;51.512;5.494;2022-11-15T12:48:56;2.33;;;0.93;;
13807;SDS011;40769;51.512;5.494;2022-11-15T13:02:55;1.67;;;0.80;;
13807;SDS011;40769;51.512;5.494;2022-11-15T13:08:07;3.30;;;0.80;;
13807;SDS011;40769;51.512;5.494;2022-11-15T13:10:33;1.65;;;0.70;;
13807;SDS011;40769;51.512;5.494;2022-11-15T13:15:31;0.80;;;0.60;;
13807;SDS011;40769;51.512;5.494;2022-11-15T13:18:18;1.80;;;0.90;;
13807;SDS011;40769;51.512;5.494;2022-11-15T13:21:03;1.50;;;0.63;;
13807;SDS011;40769;51.512;5.494;2022-11-15T13:24:02;1.45;;;0.65;;
13807;SDS011;40769;51.512;5.494;2022-11-15T13:26:31;1.15;;;0.73;;
13807;SDS011;40769;51.512;5.494;2022-11-15T13:28:56;3.47;;;0.80;;
13807;SDS011;40769;51.512;5.494;2022-11-15T13:33:53;1.08;;;0.60;;
13807;SDS011;40769;51.512;5.494;2022-11-15T13:36:22;1.60;;;0.70;;
13807;SDS011;40769;51.512;5.494;2022-11-15T13:39:01;0.80;;;0.60;;
13807;SDS011;40769;51.512;5.494;2022-11-15T13:41:30;2.05;;;0.90;;
13807;SDS011;40769;51.512;5.494;2022-11-15T13:44:00;1.17;;;0.73;;
13807;SDS011;40769;51.512;5.494;2022-11-15T13:46:29;1.08;;;0.60;;
13807;SDS011;40769;51.512;5.494;2022-11-15T13:51:46;0.98;;;0.57;;
13807;SDS011;40769;51.512;5.494;2022-11-15T13:57:12;1.98;;;0.70;;
13807;SDS011;40769;51.512;5.494;2022-11-15T13:59:50;1.30;;;0.70;;
13807;SDS011;40769;51.512;5.494;2022-11-15T14:02:25;2.00;;;0.85;;
13807;SDS011;40769;51.512;5.494;2022-11-15T14:04:54;1.45;;;0.70;;
13807;SDS011;40769;51.512;5.494;2022-11-15T14:07:21;2.08;;;0.75;;
13807;SDS011;40769;51.512;5.494;2022-11-15T14:09:48;1.90;;;0.80;;
13807;SDS011;40769;51.512;5.494;2022-11-15T14:12:26;1.35;;;0.73;;
13807;SDS011;40769;51.512;5.494;2022-11-15T14:14:59;1.50;;;0.65;;
13807;SDS011;40769;51.512;5.494;2022-11-15T14:17:42;0.90;;;0.60;;
13807;SDS011;40769;51.512;5.494;2022-11-15T14:20:19;1.45;;;0.85;;
13807;SDS011;40769;51.512;5.494;2022-11-15T14:22:58;0.73;;;0.60;;
13807;SDS011;40769;51.512;5.494;2022-11-15T14:25:26;0.80;;;0.45;;
13807;SDS011;40769;51.512;5.494;2022-11-15T14:30:41;1.50;;;0.70;;
13807;SDS011;40769;51.512;5.494;2022-11-15T14:35:57;0.80;;;0.50;;
13807;SDS011;40769;51.512;5.494;2022-11-15T14:38:28;1.52;;;0.70;;
13807;SDS011;40769;51.512;5.494;2022-11-15T14:40:53;2.03;;;0.73;;
13807;SDS011;40769;51.512;5.494;2022-11-15T14:43:20;1.13;;;0.65;;
13807;SDS011;40769;51.512;5.494;2022-11-15T14:45:46;1.00;;;0.70;;
13807;SDS011;40769;51.512;5.494;2022-11-15T14:48:12;0.88;;;0.50;;
13807;SDS011;40769;51.512;5.494;2022-11-15T14:50:38;1.25;;;0.98;;
13807;SDS011;40769;51.512;5.494;2022-11-15T14:53:05;1.48;;;0.98;;
13807;SDS011;40769;51.512;5.494;2022-11-15T14:55:32;1.30;;;0.80;;
13807;SDS011;40769;51.512;5.494;2022-11-15T14:58:04;2.42;;;1.13;;
13807;SDS011;40769;51.512;5.494;2022-11-15T15:00:33;2.28;;;1.63;;
13807;SDS011;40769;51.512;5.494;2022-11-15T15:03:03;1.98;;;1.20;;
13807;SDS011;40769;51.512;5.494;2022-11-15T15:07:54;1.33;;;1.13;;
13807;SDS011;40769;51.512;5.494;2022-11-15T15:10:20;2.60;;;1.58;;
13807;SDS011;40769;51.512;5.494;2022-11-15T15:12:46;2.20;;;1.10;;
13807;SDS011;40769;51.512;5.494;2022-11-15T15:15:13;1.95;;;1.20;;
13807;SDS011;40769;51.512;5.494;2022-11-15T15:17:48;1.48;;;1.00;;
13807;SDS011;40769;51.512;5.494;2022-11-15T15:20:14;1.55;;;1.25;;
13807;SDS011;40769;51.512;5.494;2022-11-15T15:22:40;4.07;;;1.35;;
13807;SDS011;40769;51.512;5.494;2022-11-15T15:27:47;1.50;;;1.15;;
13807;SDS011;40769;51.512;5.494;2022-11-15T15:30:12;1.25;;;0.88;;
13807;SDS011;40769;51.512;5.494;2022-11-15T15:32:38;1.80;;;1.13;;
13807;SDS011;40769;51.512;5.494;2022-11-15T15:35:04;1.75;;;1.42;;
13807;SDS011;40769;51.512;5.494;2022-11-15T15:37:30;1.60;;;0.88;;
13807;SDS011;40769;51.512;5.494;2022-11-15T15:39:58;2.00;;;0.95;;
13807;SDS011;40769;51.512;5.494;2022-11-15T15:42:24;1.10;;;0.80;;
13807;SDS011;40769;51.512;5.494;2022-11-15T15:44:50;1.27;;;0.90;;
13807;SDS011;40769;51.512;5.494;2022-11-15T15:47:16;1.08;;;0.80;;
13807;SDS011;40769;51.512;5.494;2022-11-15T15:49:45;3.05;;;1.80;;
13807;SDS011;40769;51.512;5.494;2022-11-15T15:52:11;4.32;;;3.15;;
13807;SDS011;40769;51.512;5.494;2022-11-15T15:54:37;8.88;;;6.68;;
13807;SDS011;40769;51.512;5.494;2022-11-15T15:57:03;3.92;;;3.50;;
13807;SDS011;40769;51.512;5.494;2022-11-15T15:59:29;2.00;;;1.80;;
13807;SDS011;40769;51.512;5.494;2022-11-15T16:01:55;1.73;;;1.33;;
13807;SDS011;40769;51.512;5.494;2022-11-15T16:04:21;1.95;;;1.25;;
13807;SDS011;40769;51.512;5.494;2022-11-15T16:06:47;1.95;;;1.15;;
13807;SDS011;40769;51.512;5.494;2022-11-15T16:09:15;0.98;;;0.88;;
13807;SDS011;40769;51.512;5.494;2022-11-15T16:11:43;1.40;;;1.20;;
13807;SDS011;40769;51.512;5.494;2022-11-15T16:14:09;1.98;;;1.08;;
13807;SDS011;40769;51.512;5.494;2022-11-15T16:16:36;1.23;;;0.80;;
13807;SDS011;40769;51.512;5.494;2022-11-15T16:19:02;2.03;;;1.30;;
13807;SDS011;40769;51.512;5.494;2022-11-15T16:21:28;1.95;;;0.98;;
13807;SDS011;40769;51.512;5.494;2022-11-15T16:23:54;1.92;;;1.40;;
13807;SDS011;40769;51.512;5.494;2022-11-15T16:26:21;1.83;;;1.40;;
13807;SDS011;40769;51.512;5.494;2022-11-15T16:28:49;1.98;;;1.38;;
13807;SDS011;40769;51.512;5.494;2022-11-15T16:31:15;1.23;;;0.90;;
13807;SDS011;40769;51.512;5.494;2022-11-15T16:33:43;1.40;;;1.00;;
13807;SDS011;40769;51.512;5.494;2022-11-15T16:36:15;1.70;;;1.40;;
13807;SDS011;40769;51.512;5.494;2022-11-15T16:38:43;2.00;;;1.30;;
13807;SDS011;40769;51.512;5.494;2022-11-15T16:41:08;1.60;;;1.30;;
13807;SDS011;40769;51.512;5.494;2022-11-15T16:43:34;1.77;;;1.25;;
13807;SDS011;40769;51.512;5.494;2022-11-15T16:46:02;2.08;;;1.45;;
13807;SDS011;40769;51.512;5.494;2022-11-15T16:48:33;2.25;;;1.55;;
13807;SDS011;40769;51.512;5.494;2022-11-15T16:50:59;2.25;;;1.50;;
13807;SDS011;40769;51.512;5.494;2022-11-15T16:53:25;1.30;;;1.08;;
13807;SDS011;40769;51.512;5.494;2022-11-15T16:55:51;2.08;;;1.40;;
13807;SDS011;40769;51.512;5.494;2022-11-15T16:58:18;1.75;;;1.20;;
13807;SDS011;40769;51.512;5.494;2022-11-15T17:00:44;1.65;;;1.27;;